Results 1 to 5 of 5

Thread: 2022 New Holstein STOL Demo Scores

  1. #1
    SJ's Avatar
    Join Date
    Jan 2002
    Location
    Northwest Arkansas
    Posts
    15,908
    Post Thanks / Like

    2022 New Holstein STOL Demo Scores

    Thanks to everyone who helped or participated in this year's STOL demo at New Holstein! It's a crowd favorite!

    Name:  newholsteinstol.png
Views: 407
Size:  228.6 KB
    "Often Mistaken, but Never in Doubt"
    ------------------------------------------
    Thanks WindOnHisNose, rotto789 thanked for this post

  2. #2
    aktango58's Avatar
    Join Date
    Aug 2004
    Location
    18AA
    Posts
    9,852
    Post Thanks / Like
    Some good flying there!
    I don't know where you've been me lad, but I see you won first Prize!

  3. #3
    SJ's Avatar
    Join Date
    Jan 2002
    Location
    Northwest Arkansas
    Posts
    15,908
    Post Thanks / Like
    Nearby Metar data for the day, I think the demo was scheduled for 1pm local (-5).

    KSBM 241153Z AUTO 20006KT 10SM FEW010 22/22 A2976 RMK AO2 SLP074 60082 70175 T02220217 10228 20206 55005
    KSBM 241230Z AUTO 23007KT 10SM FEW008 23/22 A2976 RMK AO2 T02330222
    KSBM 241253Z AUTO 27010KT 10SM FEW008 24/22 A2976 RMK AO2 SLP075 T02390222
    KSBM 241406Z AUTO 29010KT 10SM BKN015 25/22 A2978 RMK AO2 T02500222
    KSBM 241501Z AUTO 26009KT 10SM SCT016 BKN055 25/22 A2978 RMK AO2 T02500222
    KSBM 241515Z AUTO 27011KT 10SM SCT017 BKN024 OVC055 25/22 A2979 RMK AO2 T02500217
    KSBM 241553Z AUTO 30009KT 10SM FEW018 OVC030 26/22 A2979 RMK AO2 SLP083 T02560217
    KSBM 241618Z AUTO 31009KT 10SM FEW016 FEW021 OVC029 24/21 A2979 RMK AO2 T02440211
    KSBM 241653Z AUTO 29008KT 10SM FEW016 BKN024 OVC029 25/22 A2980 RMK AO2 SLP087 T02500217
    KSBM 241739Z AUTO 28011KT 10SM FEW022 27/21 A2980 RMK AO2 T02670211
    KSBM 241753Z AUTO 30010KT 10SM FEW026 27/21 A2980 RMK AO2 SLP087 T02670211 10267 20222 51008
    KSBM 241853Z AUTO 30012G21KT 10SM FEW036 27/19 A2980 RMK AO2 SLP087 T02720194
    KSBM 241953Z AUTO 31013G17KT 10SM SCT044 BKN065 28/18 A2981 RMK AO2 PK WND 28026/1937 SLP089 T02830183
    KSBM 242053Z AUTO 30011G23KT 10SM CLR 27/16 A2983 RMK AO2 SLP095 T02720161 53007
    KSBM 242253Z AUTO 30012G23KT 10SM FEW060 26/15 A2986 RMK AO2 SLP106 T02610150
    KSBM 242353Z AUTO 30013G19KT 10SM CLR 26/15 A2987 RMK AO2 SLP110 T02560150 10283 20256 51015
    KOSH 241353Z 28006KT 8SM SCT007 OVC022 22/21 A2979 RMK AO2 SLP078 T02220206
    KOSH 241424Z 31006KT 10SM SCT009 BKN018 OVC024 22/21 A2979 RMK AO2 T02220206
    KOSH 241437Z 29005KT 10SM BKN009 BKN012 OVC022 22/21 A2980 RMK AO2 T02220206
    KOSH 241453Z 30008KT 10SM FEW010 SCT014 OVC027 23/21 A2980 RMK AO2 SLP079 T02280206 51012
    KOSH 241508Z 33011KT 10SM FEW010 BKN030 BKN044 24/20 A2980 RMK AO2 T02390200
    KOSH 241542Z 31009G17KT 10SM FEW018 BKN025 24/19 A2980 RMK AO2 T02390189
    KOSH 241553Z 33009G18KT 10SM SCT023 BKN029 BKN038 25/19 A2981 RMK AO2 SLP081 T02500194
    KOSH 241612Z VRB05KT 10SM FEW023 FEW029 BKN040 25/19 A2981 RMK AO2 T02500194
    KOSH 241653Z 31007KT 10SM FEW024 SCT029 BKN047 26/19 A2981 RMK AO2 SLP083 T02610189
    KOSH 241725Z 30010KT 10SM FEW030 SCT037 BKN045 25/18 A2982 RMK AO2 T02500178
    KOSH 241753Z 30012G19KT 10SM FEW038 BKN060 26/18 A2982 RMK AO2 SLP084 T02610183 10272 20217 51007
    KOSH 241853Z 29016G23KT 10SM CLR 27/16 A2982 RMK AO2 SLP084 T02720161
    KOSH 241932Z 29013G27KT 3/4SM R36/1200VP6000FT HZ CLR 27/14 A2983 RMK AO2 PK WND 29027/1928 VIS M1/4V5 T02670144
    KOSH 241940Z 29016G22KT 10SM CLR 27/15 A2983 RMK AO2 PK WND 29027/1928 T02720150
    KOSH 241953Z 29013G24KT 10SM FEW050 27/14 A2983 RMK AO2 PK WND 29027/1928 SLP089 T02670144
    KOSH 242053Z 29014G26KT 10SM CLR 27/14 A2984 RMK AO2 PK WND 31026/2050 SLP092 T02670139 53008
    KOSH 242309Z 29011KT 10SM SCT055 26/14 A2987 RMK AO2 T02560139
    KOSH 242353Z 30009G18KT 10SM CLR 25/13 A2988 RMK AO2 SLP106 T02500128 10272 20250 53008
    "Often Mistaken, but Never in Doubt"
    ------------------------------------------

  4. #4
    WindOnHisNose's Avatar
    Join Date
    Apr 2003
    Location
    Lino Lakes MN (MY18)
    Posts
    4,704
    Post Thanks / Like
    Attachment 62017Yes, it was a difficult day for STOL, with a significant crosswind, as we were using runway 20. However, the pilots did a terrific job of demonstrating their skills and their aircraft! Many thanks to those who flew!

    A special shout out to Alaine Olthafer, who stepped up to the plate and flew Santa's Super Cub smoothly and skillfully!

    Click image for larger version. 

Name:	DSC07967-SharpenAI-Focus.jpg 
Views:	49 
Size:	126.8 KB 
ID:	62018
    Click image for larger version. 

Name:	DSC07985-SharpenAI-Focus.jpg 
Views:	52 
Size:	78.1 KB 
ID:	62019

    We were fortunate enough to land the contract with Jim "BIG DEAL" Dickerson as master of ceremonies, teaming up with Ron Sitzman at the sound controls. We had an excellent turnout from the community, as always, for the New Holstein Airport Appreciation Day, the Young Eagles Rally (96 flights given) and the STOL.

    Hope to see you next year!

    Randy the Shooter
    Thanks rotto789 thanked for this post
    Likes AkPA/18, rotto789 liked this post

  5. #5

    Join Date
    Dec 2006
    Location
    Meanwhile,...
    Posts
    5,539
    Post Thanks / Like
    Quote Originally Posted by aktango58 View Post
    Some good flying there!
    Very tough conditions, many of the specialty planes were really challenged with the cross wind. Saw more than a few near seat cushion puckers.
    Remember, These are the Good old Days!

Similar Threads

  1. Beaver STOL demo
    By mvivion in forum DeHavliand: DHC-2 DHC-3 Beaver, Otter
    Replies: 7
    Last Post: 02-17-2022, 02:45 AM
  2. Oshkosh stol demo
    By Little_Cub in forum Modifications
    Replies: 40
    Last Post: 08-02-2017, 08:34 AM

Bookmarks

Bookmarks

Posting Permissions

  • You may not post new threads
  • You may not post replies
  • You may not post attachments
  • You may not edit your posts
  •